sensor_id;sensor_type;location;lat;lon;timestamp;P1;durP1;ratioP1;P2;durP2;ratioP2
75542;SDS011;64129;53.508;10.476;2022-10-28T00:00:20;8.35;;;4.03;;
75542;SDS011;64129;53.508;10.476;2022-10-28T00:02:45;6.63;;;4.20;;
75542;SDS011;64129;53.508;10.476;2022-10-28T00:05:11;4.60;;;3.45;;
75542;SDS011;64129;53.508;10.476;2022-10-28T00:07:36;5.38;;;3.55;;
75542;SDS011;64129;53.508;10.476;2022-10-28T00:10:01;4.65;;;3.50;;
75542;SDS011;64129;53.508;10.476;2022-10-28T00:12:27;6.82;;;3.67;;
75542;SDS011;64129;53.508;10.476;2022-10-28T00:14:52;5.05;;;3.30;;
75542;SDS011;64129;53.508;10.476;2022-10-28T00:17:18;8.43;;;3.70;;
75542;SDS011;64129;53.508;10.476;2022-10-28T00:19:43;4.97;;;3.75;;
75542;SDS011;64129;53.508;10.476;2022-10-28T00:22:08;7.15;;;3.95;;
75542;SDS011;64129;53.508;10.476;2022-10-28T00:24:34;6.50;;;4.60;;
75542;SDS011;64129;53.508;10.476;2022-10-28T00:26:59;5.97;;;3.70;;
75542;SDS011;64129;53.508;10.476;2022-10-28T00:29:24;5.65;;;3.97;;
75542;SDS011;64129;53.508;10.476;2022-10-28T00:31:50;5.65;;;4.13;;
75542;SDS011;64129;53.508;10.476;2022-10-28T00:34:17;8.15;;;3.75;;
75542;SDS011;64129;53.508;10.476;2022-10-28T00:36:45;5.38;;;4.05;;
75542;SDS011;64129;53.508;10.476;2022-10-28T00:39:12;4.10;;;3.38;;
75542;SDS011;64129;53.508;10.476;2022-10-28T00:41:42;6.18;;;3.88;;
75542;SDS011;64129;53.508;10.476;2022-10-28T00:47:14;6.60;;;4.13;;
75542;SDS011;64129;53.508;10.476;2022-10-28T00:50:04;4.43;;;3.10;;
75542;SDS011;64129;53.508;10.476;2022-10-28T00:52:36;7.10;;;3.83;;
75542;SDS011;64129;53.508;10.476;2022-10-28T00:55:03;4.65;;;3.40;;
75542;SDS011;64129;53.508;10.476;2022-10-28T00:57:30;6.05;;;3.78;;
75542;SDS011;64129;53.508;10.476;2022-10-28T00:59:58;5.53;;;3.83;;
75542;SDS011;64129;53.508;10.476;2022-10-28T01:02:25;5.05;;;3.75;;
75542;SDS011;64129;53.508;10.476;2022-10-28T01:04:51;8.25;;;4.00;;
75542;SDS011;64129;53.508;10.476;2022-10-28T01:07:17;5.10;;;3.72;;
75542;SDS011;64129;53.508;10.476;2022-10-28T01:09:42;8.73;;;3.83;;
75542;SDS011;64129;53.508;10.476;2022-10-28T01:16:01;8.40;;;4.30;;
75542;SDS011;64129;53.508;10.476;2022-10-28T01:18:57;8.07;;;4.20;;
75542;SDS011;64129;53.508;10.476;2022-10-28T01:24:35;8.15;;;3.85;;
75542;SDS011;64129;53.508;10.476;2022-10-28T01:41:12;6.28;;;4.07;;
75542;SDS011;64129;53.508;10.476;2022-10-28T01:46:36;5.60;;;3.38;;
75542;SDS011;64129;53.508;10.476;2022-10-28T01:49:10;6.78;;;4.60;;
75542;SDS011;64129;53.508;10.476;2022-10-28T01:51:57;6.13;;;3.95;;
75542;SDS011;64129;53.508;10.476;2022-10-28T01:54:27;5.78;;;3.80;;
75542;SDS011;64129;53.508;10.476;2022-10-28T01:56:56;7.57;;;3.85;;
75542;SDS011;64129;53.508;10.476;2022-10-28T01:59:23;6.35;;;4.15;;
75542;SDS011;64129;53.508;10.476;2022-10-28T02:01:52;6.75;;;4.15;;
75542;SDS011;64129;53.508;10.476;2022-10-28T02:04:18;6.60;;;4.10;;
75542;SDS011;64129;53.508;10.476;2022-10-28T02:06:45;5.97;;;3.83;;
75542;SDS011;64129;53.508;10.476;2022-10-28T02:26:27;8.25;;;4.40;;
75542;SDS011;64129;53.508;10.476;2022-10-28T02:29:02;5.97;;;3.85;;
75542;SDS011;64129;53.508;10.476;2022-10-28T02:31:39;8.80;;;3.60;;
75542;SDS011;64129;53.508;10.476;2022-10-28T02:34:13;6.78;;;4.32;;
75542;SDS011;64129;53.508;10.476;2022-10-28T02:36:44;6.68;;;4.43;;
75542;SDS011;64129;53.508;10.476;2022-10-28T02:39:14;8.68;;;4.80;;
75542;SDS011;64129;53.508;10.476;2022-10-28T02:41:53;7.43;;;4.75;;
75542;SDS011;64129;53.508;10.476;2022-10-28T02:44:28;5.40;;;3.38;;
75542;SDS011;64129;53.508;10.476;2022-10-28T02:46:58;5.60;;;4.10;;
75542;SDS011;64129;53.508;10.476;2022-10-28T02:49:29;9.38;;;4.40;;
75542;SDS011;64129;53.508;10.476;2022-10-28T02:51:58;7.22;;;4.00;;
75542;SDS011;64129;53.508;10.476;2022-10-28T02:54:37;5.68;;;3.80;;
75542;SDS011;64129;53.508;10.476;2022-10-28T02:57:17;6.85;;;4.30;;
75542;SDS011;64129;53.508;10.476;2022-10-28T02:59:50;5.65;;;4.00;;
75542;SDS011;64129;53.508;10.476;2022-10-28T03:02:17;6.72;;;4.25;;
75542;SDS011;64129;53.508;10.476;2022-10-28T03:04:43;6.80;;;3.80;;
75542;SDS011;64129;53.508;10.476;2022-10-28T03:07:08;5.57;;;4.20;;
75542;SDS011;64129;53.508;10.476;2022-10-28T03:09:33;5.60;;;3.60;;
75542;SDS011;64129;53.508;10.476;2022-10-28T03:11:59;4.70;;;3.72;;
75542;SDS011;64129;53.508;10.476;2022-10-28T03:14:24;6.82;;;4.25;;
75542;SDS011;64129;53.508;10.476;2022-10-28T03:16:49;5.38;;;3.83;;
75542;SDS011;64129;53.508;10.476;2022-10-28T03:19:15;5.20;;;3.85;;
75542;SDS011;64129;53.508;10.476;2022-10-28T03:21:40;6.32;;;4.05;;
75542;SDS011;64129;53.508;10.476;2022-10-28T03:24:05;6.68;;;4.38;;
75542;SDS011;64129;53.508;10.476;2022-10-28T03:26:31;7.03;;;3.70;;
75542;SDS011;64129;53.508;10.476;2022-10-28T03:28:56;6.63;;;4.72;;
75542;SDS011;64129;53.508;10.476;2022-10-28T03:31:21;8.30;;;4.05;;
75542;SDS011;64129;53.508;10.476;2022-10-28T03:33:47;9.40;;;4.45;;
75542;SDS011;64129;53.508;10.476;2022-10-28T03:36:12;5.93;;;4.40;;
75542;SDS011;64129;53.508;10.476;2022-10-28T03:38:37;6.65;;;4.95;;
75542;SDS011;64129;53.508;10.476;2022-10-28T03:41:03;5.50;;;4.18;;
75542;SDS011;64129;53.508;10.476;2022-10-28T03:43:28;5.53;;;4.68;;
75542;SDS011;64129;53.508;10.476;2022-10-28T03:45:53;7.05;;;4.20;;
75542;SDS011;64129;53.508;10.476;2022-10-28T03:48:19;8.15;;;4.28;;
75542;SDS011;64129;53.508;10.476;2022-10-28T03:50:44;7.32;;;4.65;;
75542;SDS011;64129;53.508;10.476;2022-10-28T03:53:09;7.28;;;4.68;;
75542;SDS011;64129;53.508;10.476;2022-10-28T03:55:35;6.10;;;4.03;;
75542;SDS011;64129;53.508;10.476;2022-10-28T03:58:00;6.80;;;4.32;;
75542;SDS011;64129;53.508;10.476;2022-10-28T04:00:27;7.05;;;3.95;;
75542;SDS011;64129;53.508;10.476;2022-10-28T04:02:52;5.05;;;4.13;;
75542;SDS011;64129;53.508;10.476;2022-10-28T04:05:18;7.63;;;4.35;;
75542;SDS011;64129;53.508;10.476;2022-10-28T04:07:44;6.75;;;4.03;;
75542;SDS011;64129;53.508;10.476;2022-10-28T04:10:09;7.97;;;4.80;;
75542;SDS011;64129;53.508;10.476;2022-10-28T04:12:35;5.53;;;4.35;;
75542;SDS011;64129;53.508;10.476;2022-10-28T04:15:00;8.70;;;4.63;;
75542;SDS011;64129;53.508;10.476;2022-10-28T04:17:26;8.27;;;4.30;;
75542;SDS011;64129;53.508;10.476;2022-10-28T04:19:51;8.32;;;5.80;;
75542;SDS011;64129;53.508;10.476;2022-10-28T04:22:16;4.97;;;4.30;;
75542;SDS011;64129;53.508;10.476;2022-10-28T04:24:42;8.63;;;4.68;;
75542;SDS011;64129;53.508;10.476;2022-10-28T04:27:07;6.35;;;4.78;;
75542;SDS011;64129;53.508;10.476;2022-10-28T04:29:32;6.75;;;4.03;;
75542;SDS011;64129;53.508;10.476;2022-10-28T04:31:58;8.23;;;4.25;;
75542;SDS011;64129;53.508;10.476;2022-10-28T04:34:23;4.93;;;4.43;;
75542;SDS011;64129;53.508;10.476;2022-10-28T04:36:49;12.10;;;5.47;;
75542;SDS011;64129;53.508;10.476;2022-10-28T04:39:14;7.40;;;4.07;;
75542;SDS011;64129;53.508;10.476;2022-10-28T04:41:40;7.13;;;5.22;;
75542;SDS011;64129;53.508;10.476;2022-10-28T04:44:05;6.72;;;4.93;;
75542;SDS011;64129;53.508;10.476;2022-10-28T04:46:30;7.78;;;4.85;;
75542;SDS011;64129;53.508;10.476;2022-10-28T04:48:56;9.63;;;4.95;;
75542;SDS011;64129;53.508;10.476;2022-10-28T04:51:21;6.32;;;4.53;;
75542;SDS011;64129;53.508;10.476;2022-10-28T04:53:46;7.70;;;4.60;;
75542;SDS011;64129;53.508;10.476;2022-10-28T04:56:12;6.07;;;4.63;;
75542;SDS011;64129;53.508;10.476;2022-10-28T04:58:37;6.65;;;4.75;;
75542;SDS011;64129;53.508;10.476;2022-10-28T05:01:06;8.57;;;4.85;;
75542;SDS011;64129;53.508;10.476;2022-10-28T05:03:32;8.10;;;4.70;;
75542;SDS011;64129;53.508;10.476;2022-10-28T05:05:57;8.15;;;4.97;;
75542;SDS011;64129;53.508;10.476;2022-10-28T05:08:23;11.93;;;5.05;;
75542;SDS011;64129;53.508;10.476;2022-10-28T05:10:48;10.30;;;5.45;;
75542;SDS011;64129;53.508;10.476;2022-10-28T05:13:15;8.88;;;4.78;;
75542;SDS011;64129;53.508;10.476;2022-10-28T05:15:44;6.43;;;5.00;;
75542;SDS011;64129;53.508;10.476;2022-10-28T05:18:12;9.55;;;5.20;;
75542;SDS011;64129;53.508;10.476;2022-10-28T05:20:37;8.15;;;5.63;;
75542;SDS011;64129;53.508;10.476;2022-10-28T05:23:02;8.90;;;5.32;;
75542;SDS011;64129;53.508;10.476;2022-10-28T05:25:28;9.15;;;5.03;;
75542;SDS011;64129;53.508;10.476;2022-10-28T05:27:56;7.00;;;4.82;;
75542;SDS011;64129;53.508;10.476;2022-10-28T05:30:22;8.20;;;4.90;;
75542;SDS011;64129;53.508;10.476;2022-10-28T05:32:47;7.57;;;5.15;;
75542;SDS011;64129;53.508;10.476;2022-10-28T05:35:12;8.80;;;4.95;;
75542;SDS011;64129;53.508;10.476;2022-10-28T05:37:38;7.45;;;4.88;;
75542;SDS011;64129;53.508;10.476;2022-10-28T05:40:03;8.45;;;4.80;;
75542;SDS011;64129;53.508;10.476;2022-10-28T05:42:29;6.03;;;4.05;;
75542;SDS011;64129;53.508;10.476;2022-10-28T05:44:54;8.23;;;4.18;;
75542;SDS011;64129;53.508;10.476;2022-10-28T05:47:19;11.35;;;4.60;;
75542;SDS011;64129;53.508;10.476;2022-10-28T05:49:45;6.50;;;4.72;;
75542;SDS011;64129;53.508;10.476;2022-10-28T05:52:10;9.15;;;4.90;;
75542;SDS011;64129;53.508;10.476;2022-10-28T05:54:35;6.72;;;4.60;;
75542;SDS011;64129;53.508;10.476;2022-10-28T05:57:01;7.15;;;5.15;;
75542;SDS011;64129;53.508;10.476;2022-10-28T05:59:26;6.40;;;4.28;;
75542;SDS011;64129;53.508;10.476;2022-10-28T06:01:51;8.88;;;4.97;;
75542;SDS011;64129;53.508;10.476;2022-10-28T06:04:17;7.88;;;5.20;;
75542;SDS011;64129;53.508;10.476;2022-10-28T06:06:42;6.10;;;4.55;;
75542;SDS011;64129;53.508;10.476;2022-10-28T06:09:07;7.88;;;4.78;;
75542;SDS011;64129;53.508;10.476;2022-10-28T06:11:33;10.00;;;4.70;;
75542;SDS011;64129;53.508;10.476;2022-10-28T06:13:59;8.23;;;4.45;;
75542;SDS011;64129;53.508;10.476;2022-10-28T06:16:24;9.35;;;4.53;;
75542;SDS011;64129;53.508;10.476;2022-10-28T06:18:49;7.80;;;5.00;;
75542;SDS011;64129;53.508;10.476;2022-10-28T06:21:14;7.75;;;5.35;;
75542;SDS011;64129;53.508;10.476;2022-10-28T06:23:40;7.85;;;5.28;;
75542;SDS011;64129;53.508;10.476;2022-10-28T06:26:05;6.65;;;5.07;;
75542;SDS011;64129;53.508;10.476;2022-10-28T06:28:30;6.68;;;4.65;;
75542;SDS011;64129;53.508;10.476;2022-10-28T06:31:03;8.30;;;5.18;;
75542;SDS011;64129;53.508;10.476;2022-10-28T06:33:30;7.97;;;4.88;;
75542;SDS011;64129;53.508;10.476;2022-10-28T06:35:57;9.55;;;5.05;;
75542;SDS011;64129;53.508;10.476;2022-10-28T06:38:24;8.43;;;6.05;;
75542;SDS011;64129;53.508;10.476;2022-10-28T06:40:50;10.95;;;6.15;;
75542;SDS011;64129;53.508;10.476;2022-10-28T06:43:15;8.82;;;5.35;;
75542;SDS011;64129;53.508;10.476;2022-10-28T06:45:41;9.60;;;6.20;;
75542;SDS011;64129;53.508;10.476;2022-10-28T06:48:07;8.65;;;6.00;;
75542;SDS011;64129;53.508;10.476;2022-10-28T06:50:34;11.68;;;6.22;;
75542;SDS011;64129;53.508;10.476;2022-10-28T06:52:59;13.73;;;6.30;;
75542;SDS011;64129;53.508;10.476;2022-10-28T06:55:25;10.27;;;6.10;;
75542;SDS011;64129;53.508;10.476;2022-10-28T06:57:52;7.72;;;5.72;;
75542;SDS011;64129;53.508;10.476;2022-10-28T07:00:18;11.27;;;6.32;;
75542;SDS011;64129;53.508;10.476;2022-10-28T07:02:43;7.88;;;6.00;;
75542;SDS011;64129;53.508;10.476;2022-10-28T07:05:09;11.02;;;6.43;;
75542;SDS011;64129;53.508;10.476;2022-10-28T07:07:34;7.05;;;5.65;;
75542;SDS011;64129;53.508;10.476;2022-10-28T07:10:04;12.13;;;7.57;;
75542;SDS011;64129;53.508;10.476;2022-10-28T07:12:30;14.15;;;7.63;;
75542;SDS011;64129;53.508;10.476;2022-10-28T07:14:56;10.65;;;7.68;;
75542;SDS011;64129;53.508;10.476;2022-10-28T07:17:21;10.88;;;7.22;;
75542;SDS011;64129;53.508;10.476;2022-10-28T07:19:47;10.50;;;7.15;;
75542;SDS011;64129;53.508;10.476;2022-10-28T07:22:12;9.35;;;6.05;;
75542;SDS011;64129;53.508;10.476;2022-10-28T07:24:37;10.35;;;6.13;;
75542;SDS011;64129;53.508;10.476;2022-10-28T07:27:03;7.85;;;5.85;;
75542;SDS011;64129;53.508;10.476;2022-10-28T07:29:28;8.50;;;6.57;;
75542;SDS011;64129;53.508;10.476;2022-10-28T07:31:54;12.75;;;5.78;;
75542;SDS011;64129;53.508;10.476;2022-10-28T07:34:19;9.63;;;5.47;;
75542;SDS011;64129;53.508;10.476;2022-10-28T07:36:49;9.98;;;5.80;;
75542;SDS011;64129;53.508;10.476;2022-10-28T07:39:15;8.02;;;6.57;;
75542;SDS011;64129;53.508;10.476;2022-10-28T07:41:40;9.13;;;5.78;;
75542;SDS011;64129;53.508;10.476;2022-10-28T07:44:06;8.25;;;5.35;;
75542;SDS011;64129;53.508;10.476;2022-10-28T07:46:31;6.43;;;4.82;;
75542;SDS011;64129;53.508;10.476;2022-10-28T07:48:57;7.55;;;5.07;;
75542;SDS011;64129;53.508;10.476;2022-10-28T07:51:23;8.38;;;5.00;;
75542;SDS011;64129;53.508;10.476;2022-10-28T07:53:48;7.35;;;4.80;;
75542;SDS011;64129;53.508;10.476;2022-10-28T07:56:13;9.63;;;5.40;;
75542;SDS011;64129;53.508;10.476;2022-10-28T07:58:39;7.05;;;5.25;;
75542;SDS011;64129;53.508;10.476;2022-10-28T08:01:07;8.50;;;5.65;;
75542;SDS011;64129;53.508;10.476;2022-10-28T08:03:34;5.55;;;4.30;;
75542;SDS011;64129;53.508;10.476;2022-10-28T08:06:00;7.38;;;4.78;;
75542;SDS011;64129;53.508;10.476;2022-10-28T08:08:27;8.32;;;4.60;;
75542;SDS011;64129;53.508;10.476;2022-10-28T08:10:53;6.80;;;4.43;;
75542;SDS011;64129;53.508;10.476;2022-10-28T08:13:18;6.88;;;4.22;;
75542;SDS011;64129;53.508;10.476;2022-10-28T08:15:49;5.07;;;3.10;;
75542;SDS011;64129;53.508;10.476;2022-10-28T08:18:15;7.00;;;4.30;;
75542;SDS011;64129;53.508;10.476;2022-10-28T08:20:41;5.85;;;4.22;;
75542;SDS011;64129;53.508;10.476;2022-10-28T08:23:06;6.50;;;4.03;;
75542;SDS011;64129;53.508;10.476;2022-10-28T08:25:31;5.80;;;4.07;;
75542;SDS011;64129;53.508;10.476;2022-10-28T08:27:56;8.48;;;4.53;;
75542;SDS011;64129;53.508;10.476;2022-10-28T08:30:22;8.05;;;3.92;;
75542;SDS011;64129;53.508;10.476;2022-10-28T08:32:47;6.68;;;4.30;;
75542;SDS011;64129;53.508;10.476;2022-10-28T08:35:12;7.93;;;4.22;;
75542;SDS011;64129;53.508;10.476;2022-10-28T08:37:38;7.80;;;4.57;;
75542;SDS011;64129;53.508;10.476;2022-10-28T08:40:04;8.52;;;3.95;;
75542;SDS011;64129;53.508;10.476;2022-10-28T08:42:37;4.88;;;4.38;;
75542;SDS011;64129;53.508;10.476;2022-10-28T08:45:19;7.60;;;3.60;;
75542;SDS011;64129;53.508;10.476;2022-10-28T08:50:29;7.38;;;3.10;;
75542;SDS011;64129;53.508;10.476;2022-10-28T08:53:14;7.13;;;3.78;;
75542;SDS011;64129;53.508;10.476;2022-10-28T08:55:45;5.15;;;2.90;;
75542;SDS011;64129;53.508;10.476;2022-10-28T08:58:31;8.40;;;3.65;;
75542;SDS011;64129;53.508;10.476;2022-10-28T09:01:00;6.97;;;3.85;;
75542;SDS011;64129;53.508;10.476;2022-10-28T09:03:31;4.60;;;2.92;;
75542;SDS011;64129;53.508;10.476;2022-10-28T09:06:03;5.57;;;3.33;;
75542;SDS011;64129;53.508;10.476;2022-10-28T09:08:30;5.90;;;3.30;;
75542;SDS011;64129;53.508;10.476;2022-10-28T09:11:45;5.10;;;3.50;;
75542;SDS011;64129;53.508;10.476;2022-10-28T09:16:47;10.20;;;3.38;;
75542;SDS011;64129;53.508;10.476;2022-10-28T09:21:53;6.50;;;2.83;;
75542;SDS011;64129;53.508;10.476;2022-10-28T09:24:45;8.60;;;3.08;;
75542;SDS011;64129;53.508;10.476;2022-10-28T09:27:23;6.05;;;2.80;;
75542;SDS011;64129;53.508;10.476;2022-10-28T09:35:46;7.97;;;2.80;;
75542;SDS011;64129;53.508;10.476;2022-10-28T09:38:28;5.78;;;2.55;;
75542;SDS011;64129;53.508;10.476;2022-10-28T09:40:59;7.63;;;3.05;;
75542;SDS011;64129;53.508;10.476;2022-10-28T09:43:35;6.05;;;2.78;;
75542;SDS011;64129;53.508;10.476;2022-10-28T09:46:27;7.78;;;3.03;;
75542;SDS011;64129;53.508;10.476;2022-10-28T09:48:56;7.72;;;3.03;;
75542;SDS011;64129;53.508;10.476;2022-10-28T09:51:28;8.43;;;2.97;;
75542;SDS011;64129;53.508;10.476;2022-10-28T09:53:59;6.93;;;3.13;;
75542;SDS011;64129;53.508;10.476;2022-10-28T09:56:25;9.60;;;2.97;;
75542;SDS011;64129;53.508;10.476;2022-10-28T09:58:52;4.45;;;2.72;;
75542;SDS011;64129;53.508;10.476;2022-10-28T10:01:19;6.30;;;2.60;;
75542;SDS011;64129;53.508;10.476;2022-10-28T10:03:49;7.53;;;2.90;;
75542;SDS011;64129;53.508;10.476;2022-10-28T10:06:24;5.35;;;2.97;;
75542;SDS011;64129;53.508;10.476;2022-10-28T10:08:58;6.47;;;2.25;;
75542;SDS011;64129;53.508;10.476;2022-10-28T10:13:52;5.43;;;1.98;;
75542;SDS011;64129;53.508;10.476;2022-10-28T10:16:25;5.78;;;2.85;;
75542;SDS011;64129;53.508;10.476;2022-10-28T10:19:04;5.45;;;2.30;;
75542;SDS011;64129;53.508;10.476;2022-10-28T10:26:59;4.65;;;2.78;;
75542;SDS011;64129;53.508;10.476;2022-10-28T10:29:28;7.43;;;2.65;;
75542;SDS011;64129;53.508;10.476;2022-10-28T10:32:05;8.00;;;3.38;;
75542;SDS011;64129;53.508;10.476;2022-10-28T10:34:41;7.22;;;2.60;;
75542;SDS011;64129;53.508;10.476;2022-10-28T10:37:15;10.40;;;2.35;;
75542;SDS011;64129;53.508;10.476;2022-10-28T10:39:44;4.90;;;2.72;;
75542;SDS011;64129;53.508;10.476;2022-10-28T10:42:15;5.85;;;2.40;;
75542;SDS011;64129;53.508;10.476;2022-10-28T10:44:46;6.13;;;2.58;;
75542;SDS011;64129;53.508;10.476;2022-10-28T10:47:24;7.07;;;2.60;;
75542;SDS011;64129;53.508;10.476;2022-10-28T10:49:49;9.18;;;2.38;;
75542;SDS011;64129;53.508;10.476;2022-10-28T10:55:03;7.95;;;2.80;;
75542;SDS011;64129;53.508;10.476;2022-10-28T10:57:32;7.78;;;2.67;;
75542;SDS011;64129;53.508;10.476;2022-10-28T10:59:57;6.40;;;2.97;;
75542;SDS011;64129;53.508;10.476;2022-10-28T11:02:25;5.78;;;2.95;;
75542;SDS011;64129;53.508;10.476;2022-10-28T11:04:56;8.52;;;2.75;;
75542;SDS011;64129;53.508;10.476;2022-10-28T11:07:24;5.90;;;2.80;;
75542;SDS011;64129;53.508;10.476;2022-10-28T11:09:52;7.85;;;2.67;;
75542;SDS011;64129;53.508;10.476;2022-10-28T11:12:23;6.18;;;2.80;;
75542;SDS011;64129;53.508;10.476;2022-10-28T11:14:55;6.72;;;2.90;;
75542;SDS011;64129;53.508;10.476;2022-10-28T11:17:39;6.72;;;2.75;;
75542;SDS011;64129;53.508;10.476;2022-10-28T11:20:20;6.07;;;2.30;;
75542;SDS011;64129;53.508;10.476;2022-10-28T11:23:02;7.20;;;2.58;;
75542;SDS011;64129;53.508;10.476;2022-10-28T11:25:48;7.47;;;2.72;;
75542;SDS011;64129;53.508;10.476;2022-10-28T11:34:08;8.38;;;2.47;;
75542;SDS011;64129;53.508;10.476;2022-10-28T11:48:16;12.18;;;2.90;;
75542;SDS011;64129;53.508;10.476;2022-10-28T11:50:45;9.10;;;2.80;;
75542;SDS011;64129;53.508;10.476;2022-10-28T11:53:34;8.32;;;2.60;;
75542;SDS011;64129;53.508;10.476;2022-10-28T11:56:16;4.78;;;3.03;;
75542;SDS011;64129;53.508;10.476;2022-10-28T12:21:01;7.93;;;3.90;;
75542;SDS011;64129;53.508;10.476;2022-10-28T12:23:36;7.35;;;3.03;;
75542;SDS011;64129;53.508;10.476;2022-10-28T12:26:03;6.30;;;2.90;;
75542;SDS011;64129;53.508;10.476;2022-10-28T12:28:39;6.93;;;2.58;;
75542;SDS011;64129;53.508;10.476;2022-10-28T12:31:13;7.75;;;2.97;;
75542;SDS011;64129;53.508;10.476;2022-10-28T12:33:48;7.72;;;2.50;;
75542;SDS011;64129;53.508;10.476;2022-10-28T12:36:28;7.90;;;2.75;;
75542;SDS011;64129;53.508;10.476;2022-10-28T12:39:04;8.60;;;2.95;;
75542;SDS011;64129;53.508;10.476;2022-10-28T12:44:26;6.57;;;2.83;;
75542;SDS011;64129;53.508;10.476;2022-10-28T12:49:34;8.88;;;2.50;;
75542;SDS011;64129;53.508;10.476;2022-10-28T12:57:36;10.93;;;2.88;;
75542;SDS011;64129;53.508;10.476;2022-10-28T13:00:15;7.53;;;2.35;;
75542;SDS011;64129;53.508;10.476;2022-10-28T13:02:46;8.15;;;2.80;;
75542;SDS011;64129;53.508;10.476;2022-10-28T13:05:23;4.03;;;2.15;;
75542;SDS011;64129;53.508;10.476;2022-10-28T13:11:02;10.20;;;2.78;;
75542;SDS011;64129;53.508;10.476;2022-10-28T13:22:02;12.10;;;3.00;;
75542;SDS011;64129;53.508;10.476;2022-10-28T13:27:44;7.82;;;2.65;;
75542;SDS011;64129;53.508;10.476;2022-10-28T13:30:14;10.43;;;2.88;;
75542;SDS011;64129;53.508;10.476;2022-10-28T13:32:44;11.15;;;2.97;;
75542;SDS011;64129;53.508;10.476;2022-10-28T13:35:23;8.18;;;3.03;;
75542;SDS011;64129;53.508;10.476;2022-10-28T13:37:50;8.93;;;2.55;;
75542;SDS011;64129;53.508;10.476;2022-10-28T13:40:22;7.20;;;2.50;;
75542;SDS011;64129;53.508;10.476;2022-10-28T13:43:18;10.85;;;3.40;;
75542;SDS011;64129;53.508;10.476;2022-10-28T13:45:45;5.43;;;2.58;;
75542;SDS011;64129;53.508;10.476;2022-10-28T13:56:10;6.38;;;2.88;;
75542;SDS011;64129;53.508;10.476;2022-10-28T13:58:55;7.75;;;2.70;;
75542;SDS011;64129;53.508;10.476;2022-10-28T14:07:01;6.97;;;3.40;;
75542;SDS011;64129;53.508;10.476;2022-10-28T14:09:40;6.05;;;2.90;;
75542;SDS011;64129;53.508;10.476;2022-10-28T14:15:04;8.23;;;3.00;;
75542;SDS011;64129;53.508;10.476;2022-10-28T14:17:46;10.77;;;3.47;;
75542;SDS011;64129;53.508;10.476;2022-10-28T14:20:26;11.32;;;2.70;;
75542;SDS011;64129;53.508;10.476;2022-10-28T14:22:54;7.85;;;2.78;;
75542;SDS011;64129;53.508;10.476;2022-10-28T14:33:32;7.90;;;2.58;;
75542;SDS011;64129;53.508;10.476;2022-10-28T14:39:06;7.47;;;2.60;;
75542;SDS011;64129;53.508;10.476;2022-10-28T14:47:05;12.98;;;3.20;;
75542;SDS011;64129;53.508;10.476;2022-10-28T14:49:56;8.55;;;2.90;;
75542;SDS011;64129;53.508;10.476;2022-10-28T14:52:25;7.85;;;3.15;;
75542;SDS011;64129;53.508;10.476;2022-10-28T14:54:54;7.32;;;2.88;;
75542;SDS011;64129;53.508;10.476;2022-10-28T14:57:25;8.15;;;3.17;;
75542;SDS011;64129;53.508;10.476;2022-10-28T14:59:55;6.75;;;2.95;;
75542;SDS011;64129;53.508;10.476;2022-10-28T15:02:28;12.23;;;3.72;;
75542;SDS011;64129;53.508;10.476;2022-10-28T15:05:03;7.88;;;3.15;;
75542;SDS011;64129;53.508;10.476;2022-10-28T15:07:45;7.60;;;3.20;;
75542;SDS011;64129;53.508;10.476;2022-10-28T15:10:18;9.18;;;2.90;;
75542;SDS011;64129;53.508;10.476;2022-10-28T15:12:50;9.77;;;4.03;;
75542;SDS011;64129;53.508;10.476;2022-10-28T15:15:19;5.80;;;3.38;;
75542;SDS011;64129;53.508;10.476;2022-10-28T15:17:49;8.43;;;3.40;;
75542;SDS011;64129;53.508;10.476;2022-10-28T15:20:22;8.80;;;3.30;;
75542;SDS011;64129;53.508;10.476;2022-10-28T15:22:50;10.50;;;3.50;;
75542;SDS011;64129;53.508;10.476;2022-10-28T15:25:17;6.57;;;2.63;;
75542;SDS011;64129;53.508;10.476;2022-10-28T15:27:45;9.30;;;3.47;;
75542;SDS011;64129;53.508;10.476;2022-10-28T15:32:37;9.15;;;4.00;;
75542;SDS011;64129;53.508;10.476;2022-10-28T15:38:23;14.40;;;3.97;;
75542;SDS011;64129;53.508;10.476;2022-10-28T15:40:55;10.85;;;3.72;;
75542;SDS011;64129;53.508;10.476;2022-10-28T15:43:25;11.52;;;3.90;;
75542;SDS011;64129;53.508;10.476;2022-10-28T15:45:51;9.05;;;4.22;;
75542;SDS011;64129;53.508;10.476;2022-10-28T15:48:21;11.27;;;3.50;;
75542;SDS011;64129;53.508;10.476;2022-10-28T15:58:40;8.02;;;3.70;;
75542;SDS011;64129;53.508;10.476;2022-10-28T16:01:08;10.20;;;4.22;;
75542;SDS011;64129;53.508;10.476;2022-10-28T16:03:51;10.23;;;3.67;;
75542;SDS011;64129;53.508;10.476;2022-10-28T16:06:20;9.52;;;3.72;;
75542;SDS011;64129;53.508;10.476;2022-10-28T16:09:03;10.35;;;4.15;;
75542;SDS011;64129;53.508;10.476;2022-10-28T16:11:29;10.60;;;3.85;;
75542;SDS011;64129;53.508;10.476;2022-10-28T16:13:55;8.35;;;3.42;;
75542;SDS011;64129;53.508;10.476;2022-10-28T16:16:28;8.63;;;3.55;;
75542;SDS011;64129;53.508;10.476;2022-10-28T16:21:31;10.93;;;3.92;;
75542;SDS011;64129;53.508;10.476;2022-10-28T16:23:58;9.27;;;4.43;;
75542;SDS011;64129;53.508;10.476;2022-10-28T16:26:27;8.15;;;3.80;;
75542;SDS011;64129;53.508;10.476;2022-10-28T16:28:55;8.68;;;4.25;;
75542;SDS011;64129;53.508;10.476;2022-10-28T16:31:21;11.43;;;5.15;;
75542;SDS011;64129;53.508;10.476;2022-10-28T16:33:49;13.10;;;5.65;;
75542;SDS011;64129;53.508;10.476;2022-10-28T16:36:15;11.60;;;4.95;;
75542;SDS011;64129;53.508;10.476;2022-10-28T16:38:40;12.35;;;5.65;;
75542;SDS011;64129;53.508;10.476;2022-10-28T16:41:09;7.32;;;4.70;;
75542;SDS011;64129;53.508;10.476;2022-10-28T16:43:39;9.07;;;4.80;;
75542;SDS011;64129;53.508;10.476;2022-10-28T16:46:05;12.05;;;5.40;;
75542;SDS011;64129;53.508;10.476;2022-10-28T16:48:30;14.23;;;5.00;;
75542;SDS011;64129;53.508;10.476;2022-10-28T16:50:56;9.73;;;5.03;;
75542;SDS011;64129;53.508;10.476;2022-10-28T16:53:24;10.10;;;4.20;;
75542;SDS011;64129;53.508;10.476;2022-10-28T16:55:50;10.80;;;4.97;;
75542;SDS011;64129;53.508;10.476;2022-10-28T16:58:15;9.30;;;5.00;;
75542;SDS011;64129;53.508;10.476;2022-10-28T17:00:41;10.32;;;4.70;;
75542;SDS011;64129;53.508;10.476;2022-10-28T17:03:09;11.60;;;5.20;;
75542;SDS011;64129;53.508;10.476;2022-10-28T17:05:38;9.88;;;5.30;;
75542;SDS011;64129;53.508;10.476;2022-10-28T17:08:04;9.57;;;5.20;;
75542;SDS011;64129;53.508;10.476;2022-10-28T17:10:29;12.60;;;5.45;;
75542;SDS011;64129;53.508;10.476;2022-10-28T17:12:55;9.48;;;5.80;;
75542;SDS011;64129;53.508;10.476;2022-10-28T17:15:20;14.93;;;6.43;;
75542;SDS011;64129;53.508;10.476;2022-10-28T17:17:51;13.85;;;6.07;;
75542;SDS011;64129;53.508;10.476;2022-10-28T17:20:17;13.00;;;5.22;;
75542;SDS011;64129;53.508;10.476;2022-10-28T17:22:43;8.68;;;4.35;;
75542;SDS011;64129;53.508;10.476;2022-10-28T17:25:08;10.27;;;4.55;;
75542;SDS011;64129;53.508;10.476;2022-10-28T17:27:34;9.18;;;4.20;;
75542;SDS011;64129;53.508;10.476;2022-10-28T17:30:00;10.45;;;4.65;;
75542;SDS011;64129;53.508;10.476;2022-10-28T17:32:25;8.50;;;4.30;;
75542;SDS011;64129;53.508;10.476;2022-10-28T17:34:51;11.85;;;4.78;;
75542;SDS011;64129;53.508;10.476;2022-10-28T17:37:16;10.45;;;4.25;;
75542;SDS011;64129;53.508;10.476;2022-10-28T17:39:41;11.68;;;4.97;;
75542;SDS011;64129;53.508;10.476;2022-10-28T17:42:07;9.98;;;4.32;;
75542;SDS011;64129;53.508;10.476;2022-10-28T17:44:33;11.27;;;4.30;;
75542;SDS011;64129;53.508;10.476;2022-10-28T17:46:58;8.40;;;3.97;;